Time;durP1;ratioP1;P1;durP2;ratioP2;P2;SDS_P1;SDS_P2;PMS_P1;PMS_P2;Temp;Humidity;BMP_temperature;BMP_pressure;BME280_temperature;BME280_humidity;BME280_pressure;Samples;Min_cycle;Max_cycle;Signal;HPM_P1;HPM_P2
2021/03/10 00:00:27;;;;;;;27.80;20.42;;;;;;;;;;4951966;28;20421;-86
2021/03/10 00:02:56;;;;;;;28.67;20.40;;;;;;;;;;4952750;28;20441;-86
2021/03/10 00:05:22;;;;;;;28.55;20.55;;;;;;;;;;4972015;28;20423;-85
2021/03/10 00:07:48;;;;;;;26.77;19.52;;;;;;;;;;4973680;28;20752;-86
2021/03/10 00:10:14;;;;;;;26.90;19.30;;;;;;;;;;4983117;28;20415;-86
2021/03/10 00:12:40;;;;;;;26.35;19.42;;;;;;;;;;4953733;28;20421;-86
2021/03/10 00:15:07;;;;;;;24.77;18.88;;;;;;;;;;4952535;28;20412;-86
2021/03/10 00:17:33;;;;;;;25.65;19.70;;;;;;;;;;4973426;28;20880;-85
2021/03/10 00:19:59;;;;;;;27.40;19.73;;;;;;;;;;4970724;28;20440;-86
2021/03/10 00:22:28;;;;;;;27.27;20.02;;;;;;;;;;4974512;28;20400;-86
2021/03/10 00:24:54;;;;;;;27.75;20.58;;;;;;;;;;4972224;28;20923;-86
2021/03/10 00:27:26;;;;;;;25.33;18.73;;;;;;;;;;4972730;28;20430;-85
2021/03/10 00:29:55;;;;;;;25.67;19.52;;;;;;;;;;4973081;28;20438;-86
2021/03/10 00:32:21;;;;;;;28.87;20.10;;;;;;;;;;4956469;28;20476;-85
2021/03/10 00:34:47;;;;;;;27.42;19.85;;;;;;;;;;4953053;28;20479;-86
2021/03/10 00:37:14;;;;;;;27.67;20.85;;;;;;;;;;4972508;28;20396;-85
2021/03/10 00:39:40;;;;;;;30.05;20.20;;;;;;;;;;4956222;28;20874;-86
2021/03/10 00:42:14;;;;;;;27.30;21.00;;;;;;;;;;4952571;28;20406;-86
2021/03/10 00:44:40;;;;;;;27.30;20.42;;;;;;;;;;4950518;28;20484;-87
2021/03/10 00:47:06;;;;;;;34.22;20.75;;;;;;;;;;4963566;28;21184;-86
2021/03/10 00:49:34;;;;;;;27.33;20.08;;;;;;;;;;4955595;28;20455;-86
2021/03/10 00:52:01;;;;;;;28.60;20.70;;;;;;;;;;4973031;28;20788;-86
2021/03/10 00:54:27;;;;;;;23.85;19.17;;;;;;;;;;4957885;28;20911;-86
2021/03/10 00:56:53;;;;;;;29.20;19.73;;;;;;;;;;4963134;28;20420;-86
2021/03/10 00:59:19;;;;;;;30.80;21.15;;;;;;;;;;4970675;28;20423;-86
2021/03/10 01:01:44;;;;;;;27.90;21.05;;;;;;;;;;4956715;28;20408;-86
2021/03/10 01:04:10;;;;;;;30.58;22.02;;;;;;;;;;4955995;28;20428;-86
2021/03/10 01:06:36;;;;;;;29.00;21.67;;;;;;;;;;4956295;28;20412;-86
2021/03/10 01:09:04;;;;;;;29.95;20.73;;;;;;;;;;4966722;28;20431;-85
2021/03/10 01:11:30;;;;;;;31.13;21.55;;;;;;;;;;4971387;28;20416;-85
2021/03/10 01:13:56;;;;;;;29.25;21.52;;;;;;;;;;4952628;28;20773;-85
2021/03/10 01:16:22;;;;;;;30.20;21.17;;;;;;;;;;4958584;28;20418;-86
2021/03/10 01:18:48;;;;;;;26.53;21.43;;;;;;;;;;4971589;28;20506;-85
2021/03/10 01:21:14;;;;;;;31.00;22.05;;;;;;;;;;4955762;28;20907;-86
2021/03/10 01:23:40;;;;;;;32.53;21.73;;;;;;;;;;4970262;28;20434;-85
2021/03/10 01:26:06;;;;;;;29.07;21.43;;;;;;;;;;4970519;28;20515;-86
2021/03/10 01:28:32;;;;;;;26.15;20.38;;;;;;;;;;4971687;28;20408;-86
2021/03/10 01:30:58;;;;;;;30.13;22.02;;;;;;;;;;4955378;28;20465;-86
2021/03/10 01:33:24;;;;;;;30.23;21.98;;;;;;;;;;4972249;28;20409;-85
2021/03/10 01:35:50;;;;;;;33.70;22.80;;;;;;;;;;4954728;28;20502;-86
2021/03/10 01:38:16;;;;;;;29.73;22.07;;;;;;;;;;4954833;28;20838;-86
2021/03/10 01:40:42;;;;;;;30.88;22.77;;;;;;;;;;4955131;28;20407;-86
2021/03/10 01:43:08;;;;;;;30.73;22.42;;;;;;;;;;4971680;28;21116;-85
2021/03/10 01:45:34;;;;;;;32.63;22.95;;;;;;;;;;4971656;28;20408;-86
2021/03/10 01:48:00;;;;;;;31.60;23.85;;;;;;;;;;4972055;28;20404;-85
2021/03/10 01:50:26;;;;;;;29.92;22.73;;;;;;;;;;4970670;28;20412;-86
2021/03/10 01:52:53;;;;;;;30.77;23.02;;;;;;;;;;4970854;28;20448;-85
2021/03/10 01:55:19;;;;;;;34.07;23.57;;;;;;;;;;4970290;28;20428;-86
2021/03/10 01:57:45;;;;;;;33.10;23.80;;;;;;;;;;4973185;28;20400;-85
2021/03/10 02:00:14;;;;;;;33.25;24.48;;;;;;;;;;4970868;28;20425;-86
2021/03/10 02:02:40;;;;;;;32.15;24.63;;;;;;;;;;4955197;28;20779;-85
2021/03/10 02:05:07;;;;;;;35.38;24.70;;;;;;;;;;4970273;28;20426;-86
2021/03/10 02:07:52;;;;;;;31.85;24.15;;;;;;;;;;4953814;28;20422;-86
2021/03/10 02:10:33;;;;;;;35.72;25.45;;;;;;;;;;4968638;28;20452;-86
2021/03/10 02:13:00;;;;;;;34.10;23.05;;;;;;;;;;4967538;28;20907;-86
2021/03/10 02:15:45;;;;;;;33.67;25.05;;;;;;;;;;4971054;28;20429;-86
2021/03/10 02:18:12;;;;;;;33.90;23.58;;;;;;;;;;4972738;28;20384;-85
2021/03/10 02:20:38;;;;;;;33.72;24.25;;;;;;;;;;4970738;28;20444;-86
2021/03/10 02:23:09;;;;;;;35.40;24.83;;;;;;;;;;4959492;28;20443;-86
2021/03/10 02:25:38;;;;;;;31.65;22.65;;;;;;;;;;4952981;28;20452;-85
2021/03/10 02:28:04;;;;;;;32.70;23.13;;;;;;;;;;4970647;28;20752;-85
2021/03/10 02:30:33;;;;;;;32.40;22.75;;;;;;;;;;4970553;28;20466;-86
2021/03/10 02:32:59;;;;;;;28.55;22.25;;;;;;;;;;4955609;28;20487;-86
2021/03/10 02:35:26;;;;;;;35.03;22.48;;;;;;;;;;4954789;28;20424;-86
2021/03/10 02:37:53;;;;;;;31.10;21.47;;;;;;;;;;4969195;28;20483;-85
2021/03/10 02:40:19;;;;;;;33.55;23.13;;;;;;;;;;4971104;28;20413;-86
2021/03/10 02:42:45;;;;;;;31.08;23.10;;;;;;;;;;4943427;28;20448;-85
2021/03/10 02:45:12;;;;;;;33.63;23.48;;;;;;;;;;4958505;28;20414;-85
2021/03/10 02:47:37;;;;;;;31.92;22.92;;;;;;;;;;4957190;28;20446;-85
2021/03/10 02:50:05;;;;;;;29.40;22.67;;;;;;;;;;4973938;28;20404;-85
2021/03/10 02:52:31;;;;;;;33.85;23.23;;;;;;;;;;4973668;28;20459;-85
2021/03/10 02:54:57;;;;;;;29.00;21.58;;;;;;;;;;4958159;28;20812;-86
2021/03/10 02:57:23;;;;;;;29.60;21.95;;;;;;;;;;4956767;28;20422;-86
2021/03/10 02:59:49;;;;;;;30.60;22.08;;;;;;;;;;4958337;28;20408;-86
2021/03/10 03:02:15;;;;;;;34.60;23.42;;;;;;;;;;4974821;28;20400;-85
2021/03/10 03:04:41;;;;;;;33.40;23.23;;;;;;;;;;4958040;28;20422;-86
2021/03/10 03:07:07;;;;;;;29.92;22.42;;;;;;;;;;4972713;28;20475;-85
2021/03/10 03:09:33;;;;;;;32.33;22.27;;;;;;;;;;4958247;28;20474;-86
2021/03/10 03:11:59;;;;;;;37.28;23.50;;;;;;;;;;4983988;28;20411;-86
2021/03/10 03:14:25;;;;;;;31.55;23.58;;;;;;;;;;4965796;28;20427;-85
2021/03/10 03:16:51;;;;;;;34.17;24.17;;;;;;;;;;4974674;28;20883;-86
2021/03/10 03:19:17;;;;;;;32.15;23.70;;;;;;;;;;4973970;28;20482;-86
2021/03/10 03:21:43;;;;;;;31.65;23.25;;;;;;;;;;4973961;28;20419;-86
2021/03/10 03:24:09;;;;;;;32.90;24.02;;;;;;;;;;4957681;28;20428;-85
2021/03/10 03:26:35;;;;;;;33.53;23.40;;;;;;;;;;4958544;28;20403;-86
2021/03/10 03:29:01;;;;;;;32.53;24.40;;;;;;;;;;4954825;28;20568;-85
2021/03/10 03:31:27;;;;;;;33.33;24.20;;;;;;;;;;4967241;28;20415;-86
2021/03/10 03:33:53;;;;;;;32.97;24.17;;;;;;;;;;4957012;28;20423;-86
2021/03/10 03:36:19;;;;;;;34.00;24.02;;;;;;;;;;4960174;28;20423;-85
2021/03/10 03:38:44;;;;;;;34.43;24.97;;;;;;;;;;4974363;28;20442;-85
2021/03/10 03:41:11;;;;;;;33.17;24.00;;;;;;;;;;4957147;28;20466;-86
2021/03/10 03:43:37;;;;;;;32.53;24.92;;;;;;;;;;4957813;28;20424;-85
2021/03/10 03:46:02;;;;;;;34.40;24.73;;;;;;;;;;4973840;28;20466;-86
2021/03/10 03:48:30;;;;;;;33.30;23.30;;;;;;;;;;4973592;28;20408;-86
2021/03/10 03:50:56;;;;;;;35.55;25.33;;;;;;;;;;4973001;28;20415;-85
2021/03/10 03:53:22;;;;;;;37.50;26.52;;;;;;;;;;4953016;28;20430;-85
2021/03/10 03:55:48;;;;;;;38.55;28.33;;;;;;;;;;4973976;28;20396;-85
2021/03/10 03:58:14;;;;;;;38.95;27.67;;;;;;;;;;4972181;28;20454;-85
2021/03/10 04:00:40;;;;;;;41.13;27.80;;;;;;;;;;4974493;28;20965;-85
2021/03/10 04:03:06;;;;;;;38.20;27.47;;;;;;;;;;4956113;28;20903;-86
2021/03/10 04:05:32;;;;;;;42.33;29.63;;;;;;;;;;4956008;28;20444;-85
2021/03/10 04:07:58;;;;;;;40.55;29.10;;;;;;;;;;4971924;28;20419;-85
2021/03/10 04:10:28;;;;;;;42.05;30.50;;;;;;;;;;4973629;28;20443;-85
2021/03/10 04:12:54;;;;;;;44.22;30.63;;;;;;;;;;4972533;28;20416;-85
2021/03/10 04:15:21;;;;;;;42.43;29.83;;;;;;;;;;4957081;28;20415;-85
2021/03/10 04:17:46;;;;;;;44.53;29.98;;;;;;;;;;4957515;28;20404;-86
2021/03/10 04:20:20;;;;;;;45.85;30.90;;;;;;;;;;4970943;28;20424;-85
2021/03/10 04:22:46;;;;;;;44.37;30.07;;;;;;;;;;4953699;28;20813;-86
2021/03/10 04:25:12;;;;;;;41.47;29.55;;;;;;;;;;4956687;28;20911;-85
2021/03/10 04:27:38;;;;;;;43.72;30.75;;;;;;;;;;4956650;28;20422;-85
2021/03/10 04:30:04;;;;;;;44.42;30.75;;;;;;;;;;4972744;28;20435;-85
2021/03/10 04:32:30;;;;;;;41.50;29.02;;;;;;;;;;4957103;28;20431;-85
2021/03/10 04:34:56;;;;;;;41.87;29.67;;;;;;;;;;4969007;28;20428;-85
2021/03/10 04:37:22;;;;;;;43.03;30.02;;;;;;;;;;4972566;28;20651;-85
2021/03/10 04:39:48;;;;;;;43.15;29.42;;;;;;;;;;4963068;28;20412;-85
2021/03/10 04:42:14;;;;;;;42.13;28.45;;;;;;;;;;4956901;28;20410;-85
2021/03/10 04:44:40;;;;;;;41.75;29.60;;;;;;;;;;4972478;28;20428;-85
2021/03/10 04:47:06;;;;;;;44.03;29.40;;;;;;;;;;4972166;28;20416;-85
2021/03/10 04:49:32;;;;;;;39.78;29.30;;;;;;;;;;4956370;28;20783;-85
2021/03/10 04:51:58;;;;;;;45.63;31.52;;;;;;;;;;4971750;28;20412;-85
2021/03/10 04:54:24;;;;;;;42.38;30.33;;;;;;;;;;4972059;28;20505;-85
2021/03/10 04:56:50;;;;;;;42.13;30.33;;;;;;;;;;4956030;28;20768;-85
2021/03/10 04:59:16;;;;;;;43.97;30.60;;;;;;;;;;4970581;28;20519;-85
2021/03/10 05:01:42;;;;;;;46.45;32.05;;;;;;;;;;4956099;28;20405;-85
2021/03/10 05:04:08;;;;;;;44.85;31.98;;;;;;;;;;4973444;28;20785;-85
2021/03/10 05:06:34;;;;;;;49.63;33.63;;;;;;;;;;4953576;28;20412;-85
2021/03/10 05:09:00;;;;;;;49.75;33.03;;;;;;;;;;4970255;28;20431;-85
2021/03/10 05:11:26;;;;;;;52.42;34.25;;;;;;;;;;4971982;28;20384;-85
2021/03/10 05:13:51;;;;;;;50.33;35.05;;;;;;;;;;4972112;28;20415;-85
2021/03/10 05:16:17;;;;;;;51.93;34.00;;;;;;;;;;4971542;28;20803;-85
2021/03/10 05:18:44;;;;;;;51.60;34.45;;;;;;;;;;4971936;28;20403;-85
2021/03/10 05:21:10;;;;;;;49.78;34.70;;;;;;;;;;4968161;28;20943;-85
2021/03/10 05:23:36;;;;;;;51.92;34.33;;;;;;;;;;4950424;28;20467;-85
2021/03/10 05:26:02;;;;;;;51.67;33.67;;;;;;;;;;4970045;28;20986;-85
2021/03/10 05:28:28;;;;;;;48.38;34.03;;;;;;;;;;4971594;28;20892;-85
2021/03/10 05:30:54;;;;;;;51.10;32.58;;;;;;;;;;4955201;28;20440;-85
2021/03/10 05:33:20;;;;;;;52.53;34.10;;;;;;;;;;4972083;28;20426;-86
2021/03/10 05:35:46;;;;;;;48.80;34.55;;;;;;;;;;4966402;28;20906;-85
2021/03/10 05:38:12;;;;;;;53.10;36.03;;;;;;;;;;4964054;28;21112;-86
2021/03/10 05:40:37;;;;;;;49.05;34.15;;;;;;;;;;4959600;28;20408;-85
2021/03/10 05:43:03;;;;;;;53.60;36.60;;;;;;;;;;4947284;28;20537;-87
2021/03/10 05:45:30;;;;;;;67.57;42.85;;;;;;;;;;4948350;28;20483;-85
2021/03/10 05:47:56;;;;;;;62.47;43.55;;;;;;;;;;4945610;28;20416;-86
2021/03/10 05:50:22;;;;;;;46.35;33.25;;;;;;;;;;4969788;28;20937;-85
2021/03/10 05:52:48;;;;;;;41.17;29.95;;;;;;;;;;4968856;28;20415;-86
2021/03/10 05:55:15;;;;;;;49.43;31.50;;;;;;;;;;4951029;28;20489;-85
2021/03/10 05:57:42;;;;;;;46.00;30.13;;;;;;;;;;4966593;28;20492;-84
2021/03/10 06:00:12;;;;;;;47.67;31.35;;;;;;;;;;4964607;28;20420;-85
2021/03/10 06:02:38;;;;;;;46.47;31.90;;;;;;;;;;4948445;28;20512;-85
2021/03/10 06:05:23;;;;;;;48.10;32.95;;;;;;;;;;4964632;28;20416;-85
2021/03/10 06:08:04;;;;;;;48.72;33.72;;;;;;;;;;4962850;28;20433;-85
2021/03/10 06:10:36;;;;;;;49.10;33.10;;;;;;;;;;4964535;28;20411;-85
2021/03/10 06:13:02;;;;;;;50.87;33.07;;;;;;;;;;4963710;28;20908;-85
2021/03/10 06:15:28;;;;;;;57.45;36.08;;;;;;;;;;4947019;28;20413;-86
2021/03/10 06:17:54;;;;;;;62.33;36.55;;;;;;;;;;4954226;28;20415;-86
2021/03/10 06:20:23;;;;;;;64.38;37.78;;;;;;;;;;4953954;28;20469;-86
2021/03/10 06:22:49;;;;;;;56.78;34.83;;;;;;;;;;4966783;28;20451;-86
2021/03/10 06:25:46;;;;;;;52.10;34.85;;;;;;;;;;4953535;28;20416;-86
2021/03/10 06:28:12;;;;;;;47.60;30.92;;;;;;;;;;4967723;28;20412;-86
2021/03/10 06:30:42;;;;;;;53.22;33.83;;;;;;;;;;4965799;28;20417;-86
2021/03/10 06:33:09;;;;;;;44.72;30.88;;;;;;;;;;4960696;28;20761;-85
2021/03/10 06:35:35;;;;;;;53.90;34.17;;;;;;;;;;4938173;28;20484;-85
2021/03/10 06:38:07;;;;;;;52.35;32.70;;;;;;;;;;4941275;28;20414;-86
2021/03/10 06:40:33;;;;;;;45.53;31.77;;;;;;;;;;4970709;28;20400;-90
2021/03/10 06:43:00;;;;;;;50.08;31.98;;;;;;;;;;4954699;28;20496;-85
2021/03/10 06:45:29;;;;;;;42.60;29.95;;;;;;;;;;4954518;28;20455;-86
2021/03/10 06:47:55;;;;;;;47.10;29.55;;;;;;;;;;4965580;28;20432;-86
2021/03/10 06:50:21;;;;;;;41.95;30.02;;;;;;;;;;4940096;29;20409;-85
2021/03/10 06:52:51;;;;;;;40.92;29.38;;;;;;;;;;4970021;28;21005;-86
2021/03/10 06:55:17;;;;;;;42.22;29.85;;;;;;;;;;4963523;28;20935;-85
2021/03/10 06:57:44;;;;;;;42.55;30.00;;;;;;;;;;4952767;28;20771;-84
2021/03/10 07:00:20;;;;;;;42.42;29.77;;;;;;;;;;4971236;28;20412;-84
2021/03/10 07:02:46;;;;;;;40.80;29.25;;;;;;;;;;4969679;28;20524;-84
2021/03/10 07:05:14;;;;;;;38.63;28.33;;;;;;;;;;4970486;28;20498;-86
2021/03/10 07:07:40;;;;;;;43.40;29.70;;;;;;;;;;4969482;28;20463;-86
2021/03/10 07:10:09;;;;;;;44.60;28.10;;;;;;;;;;4955123;28;20400;-86
2021/03/10 07:12:35;;;;;;;41.92;29.15;;;;;;;;;;4971110;28;20388;-86
2021/03/10 07:15:01;;;;;;;38.50;27.63;;;;;;;;;;4947045;29;20520;-86
2021/03/10 07:17:31;;;;;;;34.78;26.42;;;;;;;;;;4945083;28;20394;-91
2021/03/10 07:20:00;;;;;;;38.67;27.10;;;;;;;;;;4971066;28;20400;-87
2021/03/10 07:22:39;;;;;;;38.03;26.35;;;;;;;;;;4971056;28;20451;-86
2021/03/10 07:25:11;;;;;;;35.22;25.77;;;;;;;;;;4969789;28;20437;-86
2021/03/10 07:27:53;;;;;;;35.47;25.97;;;;;;;;;;4951879;28;20412;-86
2021/03/10 07:30:19;;;;;;;44.38;28.45;;;;;;;;;;4974534;28;20412;-86
2021/03/10 07:32:45;;;;;;;40.83;28.48;;;;;;;;;;4970581;28;20743;-86
2021/03/10 07:35:12;;;;;;;39.92;29.55;;;;;;;;;;4969081;28;20737;-86
2021/03/10 07:37:52;;;;;;;42.25;28.52;;;;;;;;;;4972366;28;20431;-86
2021/03/10 07:40:18;;;;;;;41.88;29.20;;;;;;;;;;4956755;28;20440;-86
2021/03/10 07:42:50;;;;;;;41.17;28.42;;;;;;;;;;4973977;28;20448;-86
2021/03/10 07:45:16;;;;;;;42.47;30.05;;;;;;;;;;4956516;28;20431;-86
2021/03/10 07:47:58;;;;;;;44.75;29.92;;;;;;;;;;4957520;28;20510;-86
2021/03/10 07:50:25;;;;;;;46.10;31.70;;;;;;;;;;4973750;28;20435;-86
2021/03/10 07:52:51;;;;;;;40.90;29.88;;;;;;;;;;4953722;28;20465;-86
2021/03/10 07:55:17;;;;;;;43.45;29.67;;;;;;;;;;4955418;28;20746;-87
2021/03/10 07:57:50;;;;;;;43.13;30.55;;;;;;;;;;4957639;28;20459;-86
2021/03/10 08:00:19;;;;;;;42.13;28.87;;;;;;;;;;4958331;28;20855;-87
2021/03/10 08:02:47;;;;;;;42.80;30.65;;;;;;;;;;4973723;28;20412;-87
2021/03/10 08:05:26;;;;;;;42.22;29.85;;;;;;;;;;4973599;28;20404;-86
2021/03/10 08:08:11;;;;;;;46.30;31.07;;;;;;;;;;4954074;28;20422;-86
2021/03/10 08:10:37;;;;;;;42.30;29.92;;;;;;;;;;4954557;28;20390;-87
2021/03/10 08:13:13;;;;;;;41.33;30.50;;;;;;;;;;4957761;28;20481;-86
2021/03/10 08:15:39;;;;;;;45.47;31.42;;;;;;;;;;4956316;28;20463;-86
2021/03/10 08:18:33;;;;;;;40.95;29.95;;;;;;;;;;4971635;28;20796;-86
2021/03/10 08:21:08;;;;;;;40.53;28.85;;;;;;;;;;4972422;28;20392;-86
2021/03/10 08:23:34;;;;;;;39.65;29.30;;;;;;;;;;4964837;28;20465;-86
2021/03/10 08:26:02;;;;;;;40.90;29.92;;;;;;;;;;4967434;28;20432;-86
2021/03/10 08:28:32;;;;;;;68.80;48.65;;;;;;;;;;4970961;28;20472;-86
2021/03/10 08:31:01;;;;;;;44.13;31.30;;;;;;;;;;4956537;28;20783;-86
2021/03/10 08:33:30;;;;;;;43.97;30.77;;;;;;;;;;4956697;28;20832;-87
2021/03/10 08:35:56;;;;;;;43.42;31.38;;;;;;;;;;4972506;28;20755;-86
2021/03/10 08:38:22;;;;;;;42.17;31.65;;;;;;;;;;4973279;28;20495;-86
2021/03/10 08:40:48;;;;;;;54.75;38.22;;;;;;;;;;4972035;28;20815;-86
2021/03/10 08:43:20;;;;;;;44.60;33.17;;;;;;;;;;4972502;28;20455;-86
2021/03/10 08:45:46;;;;;;;44.20;32.25;;;;;;;;;;4972791;28;20534;-85
2021/03/10 08:48:13;;;;;;;43.70;32.37;;;;;;;;;;4972782;28;20479;-85
2021/03/10 08:50:40;;;;;;;50.47;35.90;;;;;;;;;;4971300;28;20412;-85
2021/03/10 08:53:06;;;;;;;45.63;33.80;;;;;;;;;;4957006;28;20436;-85
2021/03/10 08:55:32;;;;;;;47.83;33.78;;;;;;;;;;4956723;28;20800;-86
2021/03/10 08:57:59;;;;;;;44.92;32.53;;;;;;;;;;4956021;28;20443;-85
2021/03/10 09:00:26;;;;;;;43.03;32.65;;;;;;;;;;4972231;28;20419;-86
2021/03/10 09:02:52;;;;;;;56.25;36.67;;;;;;;;;;4953262;28;20433;-86
2021/03/10 09:05:18;;;;;;;48.85;34.33;;;;;;;;;;4955866;28;20408;-85
2021/03/10 09:07:47;;;;;;;54.30;35.40;;;;;;;;;;4944204;28;20997;-85
2021/03/10 09:10:14;;;;;;;51.78;34.20;;;;;;;;;;4969079;28;20431;-86
2021/03/10 09:12:46;;;;;;;40.03;31.15;;;;;;;;;;4954987;28;20408;-86
2021/03/10 09:15:22;;;;;;;41.43;31.87;;;;;;;;;;4954929;28;20416;-86
2021/03/10 09:17:57;;;;;;;54.55;36.05;;;;;;;;;;4967572;28;20408;-86
2021/03/10 09:20:24;;;;;;;57.83;38.50;;;;;;;;;;4956359;28;20475;-85
2021/03/10 09:22:50;;;;;;;50.90;35.45;;;;;;;;;;4971705;28;20424;-86
2021/03/10 09:25:20;;;;;;;49.30;34.35;;;;;;;;;;4971883;28;20495;-86
2021/03/10 09:27:46;;;;;;;46.38;33.05;;;;;;;;;;4971656;28;20963;-85
2021/03/10 09:30:13;;;;;;;43.45;31.80;;;;;;;;;;4955576;28;20544;-86
2021/03/10 09:32:40;;;;;;;41.63;32.03;;;;;;;;;;4954042;28;20412;-86
2021/03/10 09:35:16;;;;;;;39.25;30.10;;;;;;;;;;4955757;28;20407;-86
2021/03/10 09:37:46;;;;;;;40.58;30.40;;;;;;;;;;4959459;28;20457;-88
2021/03/10 09:40:12;;;;;;;39.83;31.58;;;;;;;;;;4941005;28;20966;-87
2021/03/10 09:42:38;;;;;;;41.13;32.00;;;;;;;;;;4969402;28;20416;-86
2021/03/10 09:45:04;;;;;;;39.70;29.95;;;;;;;;;;4972709;28;20547;-86
2021/03/10 09:47:33;;;;;;;38.42;29.52;;;;;;;;;;4962059;28;20416;-85
2021/03/10 09:49:59;;;;;;;35.67;28.60;;;;;;;;;;4972895;28;20767;-86
2021/03/10 09:52:46;;;;;;;36.08;28.85;;;;;;;;;;4950628;28;20414;-87
2021/03/10 09:55:20;;;;;;;35.50;28.95;;;;;;;;;;4967547;28;20843;-85
2021/03/10 09:57:46;;;;;;;33.95;28.15;;;;;;;;;;4971116;28;20423;-86
2021/03/10 10:00:19;;;;;;;32.50;28.23;;;;;;;;;;4971063;28;20475;-86
2021/03/10 10:02:46;;;;;;;36.57;27.60;;;;;;;;;;4971887;28;20447;-86
2021/03/10 10:05:19;;;;;;;33.00;28.30;;;;;;;;;;4971531;28;20412;-86
2021/03/10 10:07:45;;;;;;;35.10;27.73;;;;;;;;;;4971158;28;20415;-86
2021/03/10 10:10:11;;;;;;;34.53;28.35;;;;;;;;;;4972901;28;20760;-86
2021/03/10 10:13:04;;;;;;;37.90;29.67;;;;;;;;;;4955432;28;20428;-86
2021/03/10 10:15:32;;;;;;;34.37;29.53;;;;;;;;;;4959665;28;20462;-86
2021/03/10 10:17:58;;;;;;;38.33;29.75;;;;;;;;;;4952315;28;20389;-86
2021/03/10 10:20:25;;;;;;;36.03;28.35;;;;;;;;;;4952467;28;20397;-86
2021/03/10 10:22:51;;;;;;;35.90;28.83;;;;;;;;;;4962555;28;20452;-86
2021/03/10 10:25:17;;;;;;;35.03;28.97;;;;;;;;;;4986915;28;20423;-86
2021/03/10 10:27:43;;;;;;;38.30;29.08;;;;;;;;;;4971457;28;20411;-86
2021/03/10 10:30:10;;;;;;;34.30;28.23;;;;;;;;;;4955632;28;20514;-85
2021/03/10 10:32:36;;;;;;;35.83;29.58;;;;;;;;;;4954598;28;20436;-84
2021/03/10 10:35:02;;;;;;;35.60;28.52;;;;;;;;;;4970320;28;20466;-84
2021/03/10 10:37:32;;;;;;;38.53;29.08;;;;;;;;;;4955277;28;20409;-85
2021/03/10 10:39:58;;;;;;;40.72;29.83;;;;;;;;;;4970604;28;20423;-86
2021/03/10 10:42:26;;;;;;;35.85;27.92;;;;;;;;;;4955282;28;20403;-86
2021/03/10 10:44:52;;;;;;;42.13;28.98;;;;;;;;;;4955503;28;20416;-86
2021/03/10 10:47:19;;;;;;;36.25;29.02;;;;;;;;;;4970227;28;20419;-87
2021/03/10 10:49:45;;;;;;;35.88;27.95;;;;;;;;;;4955419;28;20922;-84
2021/03/10 10:52:10;;;;;;;35.72;27.65;;;;;;;;;;4971246;28;20408;-85
2021/03/10 10:54:37;;;;;;;32.63;27.27;;;;;;;;;;4955219;28;20407;-84
2021/03/10 10:57:03;;;;;;;39.20;28.67;;;;;;;;;;4951822;28;20504;-85
2021/03/10 10:59:31;;;;;;;33.35;26.67;;;;;;;;;;4969840;28;20407;-85
2021/03/10 11:01:57;;;;;;;34.58;28.17;;;;;;;;;;4951562;28;20418;-84
2021/03/10 11:04:28;;;;;;;31.67;26.10;;;;;;;;;;4970687;28;21002;-84
2021/03/10 11:06:54;;;;;;;32.72;26.80;;;;;;;;;;4959677;28;20415;-85
2021/03/10 11:09:22;;;;;;;31.33;23.65;;;;;;;;;;4973952;28;20902;-85
2021/03/10 11:11:48;;;;;;;27.55;23.52;;;;;;;;;;4974892;28;20443;-85
2021/03/10 11:14:14;;;;;;;26.42;22.63;;;;;;;;;;4958783;28;20800;-85
2021/03/10 11:16:40;;;;;;;27.90;22.47;;;;;;;;;;4973534;28;20923;-85
2021/03/10 11:19:06;;;;;;;26.03;22.50;;;;;;;;;;4958852;28;20449;-85
2021/03/10 11:21:32;;;;;;;23.73;21.13;;;;;;;;;;4974772;28;20406;-85
2021/03/10 11:23:58;;;;;;;26.60;22.20;;;;;;;;;;4958683;28;20428;-86
2021/03/10 11:26:26;;;;;;;28.47;23.00;;;;;;;;;;4974238;28;20404;-86
2021/03/10 11:28:52;;;;;;;26.33;21.90;;;;;;;;;;4958841;28;20438;-87
2021/03/10 11:31:18;;;;;;;28.80;23.63;;;;;;;;;;4973012;28;20447;-87
2021/03/10 11:33:44;;;;;;;24.80;21.80;;;;;;;;;;4973554;28;20428;-86
2021/03/10 11:36:10;;;;;;;26.05;21.40;;;;;;;;;;4973795;28;20420;-86
2021/03/10 11:38:37;;;;;;;24.88;22.20;;;;;;;;;;4955079;28;20501;-86
2021/03/10 11:41:03;;;;;;;27.75;22.05;;;;;;;;;;4972065;28;20421;-86
2021/03/10 11:43:29;;;;;;;26.92;23.48;;;;;;;;;;4954795;28;20492;-86
2021/03/10 11:45:55;;;;;;;29.83;24.10;;;;;;;;;;4956270;28;20449;-87
2021/03/10 11:48:24;;;;;;;25.88;21.63;;;;;;;;;;4954728;28;20416;-86
2021/03/10 11:50:50;;;;;;;23.38;20.02;;;;;;;;;;4963532;28;20499;-86
2021/03/10 11:53:16;;;;;;;23.88;20.25;;;;;;;;;;4973359;28;21023;-86
2021/03/10 11:55:42;;;;;;;23.92;21.08;;;;;;;;;;4974246;28;20396;-87
2021/03/10 11:58:11;;;;;;;23.08;20.25;;;;;;;;;;4957438;28;20466;-86
2021/03/10 12:00:39;;;;;;;21.65;19.35;;;;;;;;;;4959322;28;20412;-86
2021/03/10 12:03:05;;;;;;;20.75;17.70;;;;;;;;;;4954848;28;20928;-86
2021/03/10 12:05:31;;;;;;;19.17;17.17;;;;;;;;;;4972149;28;20442;-86
2021/03/10 12:07:57;;;;;;;19.13;17.17;;;;;;;;;;4973008;28;20435;-87
2021/03/10 12:10:23;;;;;;;16.77;14.97;;;;;;;;;;4978301;28;20414;-85
2021/03/10 12:12:48;;;;;;;16.03;14.37;;;;;;;;;;4988888;28;20530;-86
2021/03/10 12:15:15;;;;;;;17.00;15.27;;;;;;;;;;4992764;28;20544;-86
2021/03/10 12:17:41;;;;;;;19.23;16.45;;;;;;;;;;4993396;28;20390;-86
2021/03/10 12:20:10;;;;;;;16.73;15.02;;;;;;;;;;4969692;28;20423;-86
2021/03/10 12:22:38;;;;;;;15.60;14.00;;;;;;;;;;4972943;28;21068;-86
2021/03/10 12:25:04;;;;;;;19.30;14.97;;;;;;;;;;4957730;28;20496;-86
2021/03/10 12:27:30;;;;;;;17.23;13.65;;;;;;;;;;4972835;28;20411;-86
2021/03/10 12:30:02;;;;;;;10.57;9.57;;;;;;;;;;4950956;28;20487;-87
2021/03/10 12:32:28;;;;;;;11.53;10.33;;;;;;;;;;4957077;28;20423;-84
2021/03/10 12:34:54;;;;;;;14.48;11.43;;;;;;;;;;4972218;28;20459;-88
2021/03/10 12:37:20;;;;;;;12.02;10.52;;;;;;;;;;4974025;28;20487;-86
2021/03/10 12:39:46;;;;;;;13.05;10.38;;;;;;;;;;4961819;28;20527;-87
2021/03/10 12:42:12;;;;;;;10.50;8.90;;;;;;;;;;4955775;28;20803;-86
2021/03/10 12:44:41;;;;;;;8.65;7.65;;;;;;;;;;4973395;28;20927;-86
2021/03/10 12:47:08;;;;;;;10.05;9.05;;;;;;;;;;4954527;28;20421;-86
2021/03/10 12:49:33;;;;;;;12.63;9.80;;;;;;;;;;4970002;28;20424;-85
2021/03/10 12:51:59;;;;;;;15.33;12.43;;;;;;;;;;4972275;28;20415;-86
2021/03/10 12:54:25;;;;;;;12.53;11.23;;;;;;;;;;4972610;28;20404;-86
2021/03/10 12:56:52;;;;;;;11.87;9.63;;;;;;;;;;4972102;28;20479;-86
2021/03/10 12:59:18;;;;;;;11.20;9.65;;;;;;;;;;4956378;28;20822;-86
2021/03/10 13:01:44;;;;;;;13.05;11.57;;;;;;;;;;4970340;28;20494;-86
2021/03/10 13:04:10;;;;;;;12.73;11.43;;;;;;;;;;4956000;28;20446;-86
2021/03/10 13:06:36;;;;;;;10.57;9.40;;;;;;;;;;4972288;28;20400;-87
2021/03/10 13:09:02;;;;;;;11.10;9.85;;;;;;;;;;4967866;28;20404;-86
2021/03/10 13:11:28;;;;;;;9.38;8.38;;;;;;;;;;4970770;28;20907;-86
2021/03/10 13:13:54;;;;;;;10.70;9.15;;;;;;;;;;4972221;28;20404;-86
2021/03/10 13:16:20;;;;;;;8.60;7.70;;;;;;;;;;4976496;28;20404;-86
2021/03/10 13:18:45;;;;;;;10.80;9.65;;;;;;;;;;4971943;28;20416;-87
2021/03/10 13:21:11;;;;;;;10.38;9.27;;;;;;;;;;4955710;28;20439;-86
2021/03/10 13:23:41;;;;;;;11.00;9.90;;;;;;;;;;4969974;28;20424;-87
2021/03/10 13:26:08;;;;;;;11.68;9.10;;;;;;;;;;4965106;28;20404;-86
2021/03/10 13:28:34;;;;;;;11.63;9.25;;;;;;;;;;4963689;28;20412;-87
2021/03/10 13:31:00;;;;;;;10.63;9.52;;;;;;;;;;4972047;28;20848;-87
2021/03/10 13:33:26;;;;;;;10.45;9.35;;;;;;;;;;4952952;28;20444;-86
2021/03/10 13:35:52;;;;;;;11.68;9.43;;;;;;;;;;4970917;28;20884;-85
2021/03/10 13:38:18;;;;;;;10.68;9.48;;;;;;;;;;4972776;28;20415;-87
2021/03/10 13:40:44;;;;;;;10.40;9.25;;;;;;;;;;4972439;28;20404;-87
2021/03/10 13:43:10;;;;;;;11.23;10.02;;;;;;;;;;4952572;28;20434;-86
2021/03/10 13:45:36;;;;;;;10.52;8.77;;;;;;;;;;4936798;28;20480;-86
2021/03/10 13:48:02;;;;;;;8.73;7.93;;;;;;;;;;4955121;28;20413;-86
2021/03/10 13:50:29;;;;;;;10.75;8.48;;;;;;;;;;4971734;28;20513;-86
2021/03/10 13:52:54;;;;;;;10.70;9.57;;;;;;;;;;4955546;28;20903;-85
2021/03/10 13:55:20;;;;;;;12.73;9.95;;;;;;;;;;4957366;28;20427;-86
2021/03/10 13:57:46;;;;;;;12.43;9.93;;;;;;;;;;4955911;28;20792;-87
2021/03/10 14:00:13;;;;;;;13.20;10.68;;;;;;;;;;4971116;28;20827;-85
2021/03/10 14:02:39;;;;;;;10.82;9.23;;;;;;;;;;4955623;28;20412;-86
2021/03/10 14:05:05;;;;;;;10.70;9.60;;;;;;;;;;4971342;28;20411;-85
2021/03/10 14:07:31;;;;;;;9.68;8.50;;;;;;;;;;4958992;28;20412;-85
2021/03/10 14:09:57;;;;;;;11.85;9.23;;;;;;;;;;4988036;28;20431;-85
2021/03/10 14:12:23;;;;;;;11.48;10.20;;;;;;;;;;4987678;28;20875;-86
2021/03/10 14:14:49;;;;;;;12.73;10.55;;;;;;;;;;4972851;28;20419;-86
2021/03/10 14:17:15;;;;;;;11.48;9.93;;;;;;;;;;4971029;28;20412;-85
2021/03/10 14:19:41;;;;;;;10.75;9.27;;;;;;;;;;4954658;28;20412;-86